sensor_id;sensor_type;location;lat;lon;timestamp;P1;durP1;ratioP1;P2;durP2;ratioP2
60722;SDS011;46574;52.818;6.516;2022-08-30T00:00:51;6.50;;;5.88;;
60722;SDS011;46574;52.818;6.516;2022-08-30T00:03:27;5.60;;;5.20;;
60722;SDS011;46574;52.818;6.516;2022-08-30T00:05:56;7.32;;;6.43;;
60722;SDS011;46574;52.818;6.516;2022-08-30T00:08:21;6.43;;;5.75;;
60722;SDS011;46574;52.818;6.516;2022-08-30T00:10:47;6.03;;;5.43;;
60722;SDS011;46574;52.818;6.516;2022-08-30T00:13:15;6.07;;;5.50;;
60722;SDS011;46574;52.818;6.516;2022-08-30T00:15:42;5.95;;;5.45;;
60722;SDS011;46574;52.818;6.516;2022-08-30T00:18:08;6.80;;;6.20;;
60722;SDS011;46574;52.818;6.516;2022-08-30T00:20:35;5.60;;;5.20;;
60722;SDS011;46574;52.818;6.516;2022-08-30T00:23:02;6.20;;;5.43;;
60722;SDS011;46574;52.818;6.516;2022-08-30T00:25:29;5.97;;;5.18;;
60722;SDS011;46574;52.818;6.516;2022-08-30T00:27:55;6.68;;;6.07;;
60722;SDS011;46574;52.818;6.516;2022-08-30T00:30:20;5.15;;;4.72;;
60722;SDS011;46574;52.818;6.516;2022-08-30T00:32:47;5.68;;;4.93;;
60722;SDS011;46574;52.818;6.516;2022-08-30T00:35:14;6.22;;;5.68;;
60722;SDS011;46574;52.818;6.516;2022-08-30T00:37:42;4.88;;;4.47;;
60722;SDS011;46574;52.818;6.516;2022-08-30T00:40:08;5.55;;;5.10;;
60722;SDS011;46574;52.818;6.516;2022-08-30T00:42:36;5.63;;;5.10;;
60722;SDS011;46574;52.818;6.516;2022-08-30T00:45:14;6.07;;;4.47;;
60722;SDS011;46574;52.818;6.516;2022-08-30T00:47:40;5.78;;;5.15;;
60722;SDS011;46574;52.818;6.516;2022-08-30T00:50:06;4.53;;;4.13;;
60722;SDS011;46574;52.818;6.516;2022-08-30T00:52:34;4.55;;;4.22;;
60722;SDS011;46574;52.818;6.516;2022-08-30T00:55:02;4.90;;;4.38;;
60722;SDS011;46574;52.818;6.516;2022-08-30T00:57:29;5.57;;;5.07;;
60722;SDS011;46574;52.818;6.516;2022-08-30T00:59:56;6.22;;;5.50;;
60722;SDS011;46574;52.818;6.516;2022-08-30T01:02:22;5.15;;;4.65;;
60722;SDS011;46574;52.818;6.516;2022-08-30T01:04:50;6.03;;;5.43;;
60722;SDS011;46574;52.818;6.516;2022-08-30T01:07:19;5.25;;;4.80;;
60722;SDS011;46574;52.818;6.516;2022-08-30T01:09:45;5.47;;;4.97;;
60722;SDS011;46574;52.818;6.516;2022-08-30T01:12:11;5.72;;;5.13;;
60722;SDS011;46574;52.818;6.516;2022-08-30T01:14:37;4.30;;;3.90;;
60722;SDS011;46574;52.818;6.516;2022-08-30T01:17:02;4.68;;;4.28;;
60722;SDS011;46574;52.818;6.516;2022-08-30T01:19:35;5.30;;;4.80;;
60722;SDS011;46574;52.818;6.516;2022-08-30T01:22:10;5.35;;;4.95;;
60722;SDS011;46574;52.818;6.516;2022-08-30T01:24:41;4.72;;;4.28;;
60722;SDS011;46574;52.818;6.516;2022-08-30T01:27:11;4.15;;;3.78;;
60722;SDS011;46574;52.818;6.516;2022-08-30T01:29:37;4.82;;;4.22;;
60722;SDS011;46574;52.818;6.516;2022-08-30T01:32:04;6.03;;;4.70;;
60722;SDS011;46574;52.818;6.516;2022-08-30T01:34:30;6.38;;;5.03;;
60722;SDS011;46574;52.818;6.516;2022-08-30T01:36:55;5.10;;;4.60;;
60722;SDS011;46574;52.818;6.516;2022-08-30T01:39:21;5.82;;;5.18;;
60722;SDS011;46574;52.818;6.516;2022-08-30T01:41:47;5.53;;;5.03;;
60722;SDS011;46574;52.818;6.516;2022-08-30T01:44:13;5.47;;;5.00;;
60722;SDS011;46574;52.818;6.516;2022-08-30T01:46:40;5.30;;;4.78;;
60722;SDS011;46574;52.818;6.516;2022-08-30T01:49:10;4.85;;;4.43;;
60722;SDS011;46574;52.818;6.516;2022-08-30T01:54:05;5.30;;;4.80;;
60722;SDS011;46574;52.818;6.516;2022-08-30T01:56:30;5.82;;;5.03;;
60722;SDS011;46574;52.818;6.516;2022-08-30T01:58:57;5.10;;;4.65;;
60722;SDS011;46574;52.818;6.516;2022-08-30T02:01:23;6.32;;;5.50;;
60722;SDS011;46574;52.818;6.516;2022-08-30T02:03:50;5.80;;;5.30;;
60722;SDS011;46574;52.818;6.516;2022-08-30T02:06:18;5.65;;;5.18;;
60722;SDS011;46574;52.818;6.516;2022-08-30T02:08:45;5.25;;;4.82;;
60722;SDS011;46574;52.818;6.516;2022-08-30T02:11:11;5.82;;;5.25;;
60722;SDS011;46574;52.818;6.516;2022-08-30T02:13:38;5.85;;;5.35;;
60722;SDS011;46574;52.818;6.516;2022-08-30T02:16:06;6.82;;;5.70;;
60722;SDS011;46574;52.818;6.516;2022-08-30T02:18:34;5.47;;;4.93;;
60722;SDS011;46574;52.818;6.516;2022-08-30T02:21:01;7.30;;;6.60;;
60722;SDS011;46574;52.818;6.516;2022-08-30T02:23:27;6.20;;;5.60;;
60722;SDS011;46574;52.818;6.516;2022-08-30T02:25:53;5.63;;;5.10;;
60722;SDS011;46574;52.818;6.516;2022-08-30T02:28:19;5.95;;;5.35;;
60722;SDS011;46574;52.818;6.516;2022-08-30T02:30:45;5.82;;;5.25;;
60722;SDS011;46574;52.818;6.516;2022-08-30T02:33:12;5.20;;;4.70;;
60722;SDS011;46574;52.818;6.516;2022-08-30T02:35:38;6.32;;;5.65;;
60722;SDS011;46574;52.818;6.516;2022-08-30T02:38:04;5.30;;;4.78;;
60722;SDS011;46574;52.818;6.516;2022-08-30T02:40:30;6.88;;;5.97;;
60722;SDS011;46574;52.818;6.516;2022-08-30T02:42:55;5.57;;;5.07;;
60722;SDS011;46574;52.818;6.516;2022-08-30T02:45:21;5.88;;;5.18;;
60722;SDS011;46574;52.818;6.516;2022-08-30T02:47:47;6.07;;;5.57;;
60722;SDS011;46574;52.818;6.516;2022-08-30T02:50:13;5.35;;;4.85;;
60722;SDS011;46574;52.818;6.516;2022-08-30T02:52:40;4.38;;;4.05;;
60722;SDS011;46574;52.818;6.516;2022-08-30T02:55:06;5.25;;;4.85;;
60722;SDS011;46574;52.818;6.516;2022-08-30T02:57:32;5.03;;;4.63;;
60722;SDS011;46574;52.818;6.516;2022-08-30T02:59:58;5.45;;;4.95;;
60722;SDS011;46574;52.818;6.516;2022-08-30T03:02:23;5.45;;;4.95;;
60722;SDS011;46574;52.818;6.516;2022-08-30T03:04:50;6.22;;;5.72;;
60722;SDS011;46574;52.818;6.516;2022-08-30T03:07:16;4.70;;;4.30;;
60722;SDS011;46574;52.818;6.516;2022-08-30T03:09:41;6.07;;;5.50;;
60722;SDS011;46574;52.818;6.516;2022-08-30T03:12:07;5.43;;;4.90;;
60722;SDS011;46574;52.818;6.516;2022-08-30T03:14:34;4.97;;;4.53;;
60722;SDS011;46574;52.818;6.516;2022-08-30T03:17:01;5.30;;;4.80;;
60722;SDS011;46574;52.818;6.516;2022-08-30T03:19:31;4.90;;;4.50;;
60722;SDS011;46574;52.818;6.516;2022-08-30T03:21:58;4.88;;;4.43;;
60722;SDS011;46574;52.818;6.516;2022-08-30T03:24:24;5.65;;;5.05;;
60722;SDS011;46574;52.818;6.516;2022-08-30T03:26:50;4.78;;;4.38;;
60722;SDS011;46574;52.818;6.516;2022-08-30T03:29:16;5.32;;;4.82;;
60722;SDS011;46574;52.818;6.516;2022-08-30T03:31:42;5.75;;;5.18;;
60722;SDS011;46574;52.818;6.516;2022-08-30T03:34:07;5.05;;;4.65;;
60722;SDS011;46574;52.818;6.516;2022-08-30T03:36:35;5.68;;;5.18;;
60722;SDS011;46574;52.818;6.516;2022-08-30T03:39:02;4.80;;;4.40;;
60722;SDS011;46574;52.818;6.516;2022-08-30T03:41:29;4.90;;;4.50;;
60722;SDS011;46574;52.818;6.516;2022-08-30T03:43:56;5.55;;;5.05;;
60722;SDS011;46574;52.818;6.516;2022-08-30T03:46:22;5.78;;;5.07;;
60722;SDS011;46574;52.818;6.516;2022-08-30T03:48:48;5.53;;;4.93;;
60722;SDS011;46574;52.818;6.516;2022-08-30T03:51:14;5.95;;;5.00;;
60722;SDS011;46574;52.818;6.516;2022-08-30T03:53:39;5.03;;;4.65;;
60722;SDS011;46574;52.818;6.516;2022-08-30T03:56:05;6.38;;;5.85;;
60722;SDS011;46574;52.818;6.516;2022-08-30T03:58:31;6.40;;;5.78;;
60722;SDS011;46574;52.818;6.516;2022-08-30T04:00:57;6.05;;;5.55;;
60722;SDS011;46574;52.818;6.516;2022-08-30T04:03:22;6.50;;;6.00;;
60722;SDS011;46574;52.818;6.516;2022-08-30T04:05:52;6.50;;;5.88;;
60722;SDS011;46574;52.818;6.516;2022-08-30T04:08:19;7.20;;;6.47;;
60722;SDS011;46574;52.818;6.516;2022-08-30T04:10:45;7.10;;;6.30;;
60722;SDS011;46574;52.818;6.516;2022-08-30T04:13:12;6.55;;;5.63;;
60722;SDS011;46574;52.818;6.516;2022-08-30T04:15:38;6.10;;;5.50;;
60722;SDS011;46574;52.818;6.516;2022-08-30T04:18:04;6.85;;;6.28;;
60722;SDS011;46574;52.818;6.516;2022-08-30T04:20:30;6.68;;;6.07;;
60722;SDS011;46574;52.818;6.516;2022-08-30T04:22:56;7.78;;;6.80;;
60722;SDS011;46574;52.818;6.516;2022-08-30T04:25:21;8.18;;;7.13;;
60722;SDS011;46574;52.818;6.516;2022-08-30T04:27:47;7.75;;;6.95;;
60722;SDS011;46574;52.818;6.516;2022-08-30T04:30:14;8.43;;;7.63;;
60722;SDS011;46574;52.818;6.516;2022-08-30T04:32:41;7.97;;;7.22;;
60722;SDS011;46574;52.818;6.516;2022-08-30T04:35:07;8.38;;;7.57;;
60722;SDS011;46574;52.818;6.516;2022-08-30T04:37:33;8.15;;;7.35;;
60722;SDS011;46574;52.818;6.516;2022-08-30T04:39:59;8.07;;;7.00;;
60722;SDS011;46574;52.818;6.516;2022-08-30T04:42:29;8.70;;;7.80;;
60722;SDS011;46574;52.818;6.516;2022-08-30T04:44:57;8.52;;;7.63;;
60722;SDS011;46574;52.818;6.516;2022-08-30T04:47:24;9.02;;;8.23;;
60722;SDS011;46574;52.818;6.516;2022-08-30T04:49:51;9.07;;;7.57;;
60722;SDS011;46574;52.818;6.516;2022-08-30T04:52:17;9.77;;;8.70;;
60722;SDS011;46574;52.818;6.516;2022-08-30T04:54:43;9.98;;;8.98;;
60722;SDS011;46574;52.818;6.516;2022-08-30T04:57:09;9.30;;;8.40;;
60722;SDS011;46574;52.818;6.516;2022-08-30T04:59:34;7.90;;;7.18;;
60722;SDS011;46574;52.818;6.516;2022-08-30T05:02:02;9.40;;;8.55;;
60722;SDS011;46574;52.818;6.516;2022-08-30T05:04:27;10.30;;;8.75;;
60722;SDS011;46574;52.818;6.516;2022-08-30T05:06:53;8.52;;;7.72;;
60722;SDS011;46574;52.818;6.516;2022-08-30T05:09:19;9.00;;;8.10;;
60722;SDS011;46574;52.818;6.516;2022-08-30T05:11:45;10.45;;;9.07;;
60722;SDS011;46574;52.818;6.516;2022-08-30T05:14:11;8.82;;;8.02;;
60722;SDS011;46574;52.818;6.516;2022-08-30T05:16:37;9.75;;;8.75;;
60722;SDS011;46574;52.818;6.516;2022-08-30T05:19:03;9.00;;;8.15;;
60722;SDS011;46574;52.818;6.516;2022-08-30T05:21:28;9.52;;;8.63;;
60722;SDS011;46574;52.818;6.516;2022-08-30T05:23:55;10.45;;;9.52;;
60722;SDS011;46574;52.818;6.516;2022-08-30T05:26:31;9.18;;;8.27;;
60722;SDS011;46574;52.818;6.516;2022-08-30T05:28:58;8.65;;;7.85;;
60722;SDS011;46574;52.818;6.516;2022-08-30T05:31:32;9.52;;;8.70;;
60722;SDS011;46574;52.818;6.516;2022-08-30T05:33:59;9.27;;;8.38;;
60722;SDS011;46574;52.818;6.516;2022-08-30T05:36:26;9.18;;;8.35;;
60722;SDS011;46574;52.818;6.516;2022-08-30T05:38:53;10.32;;;9.40;;
60722;SDS011;46574;52.818;6.516;2022-08-30T05:41:20;9.75;;;8.80;;
60722;SDS011;46574;52.818;6.516;2022-08-30T05:43:47;9.98;;;9.18;;
60722;SDS011;46574;52.818;6.516;2022-08-30T05:46:13;9.98;;;9.10;;
60722;SDS011;46574;52.818;6.516;2022-08-30T05:48:43;9.98;;;9.07;;
60722;SDS011;46574;52.818;6.516;2022-08-30T05:51:14;10.90;;;9.80;;
60722;SDS011;46574;52.818;6.516;2022-08-30T05:53:42;9.88;;;8.85;;
60722;SDS011;46574;52.818;6.516;2022-08-30T05:56:10;8.98;;;8.18;;
60722;SDS011;46574;52.818;6.516;2022-08-30T05:58:38;10.95;;;9.80;;
60722;SDS011;46574;52.818;6.516;2022-08-30T06:01:04;10.00;;;9.02;;
60722;SDS011;46574;52.818;6.516;2022-08-30T06:03:30;10.50;;;8.70;;
60722;SDS011;46574;52.818;6.516;2022-08-30T06:05:57;10.45;;;9.45;;
60722;SDS011;46574;52.818;6.516;2022-08-30T06:08:23;11.05;;;10.00;;
60722;SDS011;46574;52.818;6.516;2022-08-30T06:10:50;9.38;;;8.15;;
60722;SDS011;46574;52.818;6.516;2022-08-30T06:13:16;11.82;;;10.57;;
60722;SDS011;46574;52.818;6.516;2022-08-30T06:15:42;9.15;;;8.25;;
60722;SDS011;46574;52.818;6.516;2022-08-30T06:18:09;10.05;;;9.05;;
60722;SDS011;46574;52.818;6.516;2022-08-30T06:20:43;9.40;;;8.50;;
60722;SDS011;46574;52.818;6.516;2022-08-30T06:23:11;11.65;;;9.52;;
60722;SDS011;46574;52.818;6.516;2022-08-30T06:25:37;9.70;;;8.90;;
60722;SDS011;46574;52.818;6.516;2022-08-30T06:28:03;12.07;;;9.38;;
60722;SDS011;46574;52.818;6.516;2022-08-30T06:30:30;10.13;;;8.48;;
60722;SDS011;46574;52.818;6.516;2022-08-30T06:32:57;8.93;;;8.02;;
60722;SDS011;46574;52.818;6.516;2022-08-30T06:35:24;10.25;;;9.25;;
60722;SDS011;46574;52.818;6.516;2022-08-30T06:37:50;9.10;;;8.20;;
60722;SDS011;46574;52.818;6.516;2022-08-30T06:40:16;10.57;;;8.80;;
60722;SDS011;46574;52.818;6.516;2022-08-30T06:42:44;8.38;;;7.57;;
60722;SDS011;46574;52.818;6.516;2022-08-30T06:45:10;7.60;;;6.90;;
60722;SDS011;46574;52.818;6.516;2022-08-30T06:47:35;9.10;;;6.95;;
60722;SDS011;46574;52.818;6.516;2022-08-30T06:50:01;8.73;;;7.70;;
60722;SDS011;46574;52.818;6.516;2022-08-30T06:52:27;8.02;;;7.22;;
60722;SDS011;46574;52.818;6.516;2022-08-30T06:54:53;8.82;;;6.47;;
60722;SDS011;46574;52.818;6.516;2022-08-30T06:59:47;5.68;;;4.75;;
60722;SDS011;46574;52.818;6.516;2022-08-30T07:02:13;6.22;;;5.63;;
60722;SDS011;46574;52.818;6.516;2022-08-30T07:04:39;5.20;;;4.68;;
60722;SDS011;46574;52.818;6.516;2022-08-30T07:07:05;5.25;;;4.65;;
60722;SDS011;46574;52.818;6.516;2022-08-30T07:09:35;5.25;;;4.20;;
60722;SDS011;46574;52.818;6.516;2022-08-30T07:12:07;5.88;;;4.50;;
60722;SDS011;46574;52.818;6.516;2022-08-30T07:14:37;4.07;;;3.67;;
60722;SDS011;46574;52.818;6.516;2022-08-30T07:17:04;5.60;;;4.00;;
60722;SDS011;46574;52.818;6.516;2022-08-30T07:19:52;7.22;;;4.50;;
60722;SDS011;46574;52.818;6.516;2022-08-30T07:22:18;5.18;;;3.92;;
60722;SDS011;46574;52.818;6.516;2022-08-30T07:24:46;5.55;;;3.60;;
60722;SDS011;46574;52.818;6.516;2022-08-30T07:27:13;3.58;;;2.88;;
60722;SDS011;46574;52.818;6.516;2022-08-30T07:29:39;3.63;;;2.55;;
60722;SDS011;46574;52.818;6.516;2022-08-30T07:32:05;2.88;;;2.55;;
60722;SDS011;46574;52.818;6.516;2022-08-30T07:34:31;4.53;;;3.08;;
60722;SDS011;46574;52.818;6.516;2022-08-30T07:36:57;3.20;;;2.78;;
60722;SDS011;46574;52.818;6.516;2022-08-30T07:39:23;3.67;;;2.50;;
60722;SDS011;46574;52.818;6.516;2022-08-30T07:41:48;3.58;;;2.80;;
60722;SDS011;46574;52.818;6.516;2022-08-30T07:44:14;3.83;;;3.13;;
60722;SDS011;46574;52.818;6.516;2022-08-30T07:46:41;7.85;;;2.83;;
60722;SDS011;46574;52.818;6.516;2022-08-30T07:49:07;6.95;;;3.70;;
60722;SDS011;46574;52.818;6.516;2022-08-30T07:51:35;3.90;;;2.63;;
60722;SDS011;46574;52.818;6.516;2022-08-30T07:54:01;2.75;;;2.13;;
60722;SDS011;46574;52.818;6.516;2022-08-30T07:56:27;3.00;;;2.17;;
60722;SDS011;46574;52.818;6.516;2022-08-30T07:58:52;4.63;;;2.10;;
60722;SDS011;46574;52.818;6.516;2022-08-30T08:01:18;3.90;;;2.17;;
60722;SDS011;46574;52.818;6.516;2022-08-30T08:03:46;4.68;;;2.20;;
60722;SDS011;46574;52.818;6.516;2022-08-30T08:06:14;2.90;;;1.80;;
60722;SDS011;46574;52.818;6.516;2022-08-30T08:08:41;4.07;;;1.75;;
60722;SDS011;46574;52.818;6.516;2022-08-30T08:11:10;5.75;;;2.13;;
60722;SDS011;46574;52.818;6.516;2022-08-30T08:13:39;4.30;;;1.90;;
60722;SDS011;46574;52.818;6.516;2022-08-30T08:16:05;2.53;;;1.80;;
60722;SDS011;46574;52.818;6.516;2022-08-30T08:18:32;3.08;;;1.80;;
60722;SDS011;46574;52.818;6.516;2022-08-30T08:20:58;3.78;;;2.03;;
60722;SDS011;46574;52.818;6.516;2022-08-30T08:23:25;4.78;;;1.73;;
60722;SDS011;46574;52.818;6.516;2022-08-30T08:25:51;5.18;;;1.92;;
60722;SDS011;46574;52.818;6.516;2022-08-30T08:28:16;2.90;;;1.50;;
60722;SDS011;46574;52.818;6.516;2022-08-30T08:30:42;2.47;;;1.42;;
60722;SDS011;46574;52.818;6.516;2022-08-30T08:33:08;4.18;;;1.60;;
60722;SDS011;46574;52.818;6.516;2022-08-30T08:35:34;2.60;;;1.50;;
60722;SDS011;46574;52.818;6.516;2022-08-30T08:38:00;1.63;;;1.52;;
60722;SDS011;46574;52.818;6.516;2022-08-30T08:40:26;3.22;;;1.90;;
60722;SDS011;46574;52.818;6.516;2022-08-30T08:43:04;4.97;;;1.77;;
60722;SDS011;46574;52.818;6.516;2022-08-30T08:50:54;4.97;;;1.77;;
60722;SDS011;46574;52.818;6.516;2022-08-30T08:53:38;2.72;;;1.67;;
60722;SDS011;46574;52.818;6.516;2022-08-30T08:56:11;3.65;;;1.58;;
60722;SDS011;46574;52.818;6.516;2022-08-30T08:58:47;4.10;;;1.58;;
60722;SDS011;46574;52.818;6.516;2022-08-30T09:01:17;3.72;;;1.67;;
60722;SDS011;46574;52.818;6.516;2022-08-30T09:03:44;1.88;;;1.67;;
60722;SDS011;46574;52.818;6.516;2022-08-30T09:06:19;3.17;;;1.95;;
60722;SDS011;46574;52.818;6.516;2022-08-30T09:09:02;1.92;;;1.60;;
60722;SDS011;46574;52.818;6.516;2022-08-30T09:11:30;2.13;;;1.90;;
60722;SDS011;46574;52.818;6.516;2022-08-30T09:13:59;3.67;;;1.42;;
60722;SDS011;46574;52.818;6.516;2022-08-30T09:16:47;2.80;;;1.65;;
60722;SDS011;46574;52.818;6.516;2022-08-30T09:22:40;2.38;;;1.60;;
60722;SDS011;46574;52.818;6.516;2022-08-30T09:24:58;2.72;;;1.40;;
60722;SDS011;46574;52.818;6.516;2022-08-30T09:27:27;2.95;;;1.30;;
60722;SDS011;46574;52.818;6.516;2022-08-30T09:29:58;3.50;;;1.67;;
60722;SDS011;46574;52.818;6.516;2022-08-30T09:35:10;1.77;;;1.10;;
60722;SDS011;46574;52.818;6.516;2022-08-30T09:37:53;1.67;;;1.25;;
60722;SDS011;46574;52.818;6.516;2022-08-30T09:40:24;2.15;;;1.33;;
60722;SDS011;46574;52.818;6.516;2022-08-30T09:45:28;1.52;;;1.00;;
60722;SDS011;46574;52.818;6.516;2022-08-30T09:47:56;2.15;;;1.10;;
60722;SDS011;46574;52.818;6.516;2022-08-30T09:50:22;1.40;;;1.10;;
60722;SDS011;46574;52.818;6.516;2022-08-30T09:58:20;2.03;;;1.08;;
60722;SDS011;46574;52.818;6.516;2022-08-30T10:00:51;1.75;;;1.30;;
60722;SDS011;46574;52.818;6.516;2022-08-30T10:15:13;2.28;;;1.02;;
60722;SDS011;46574;52.818;6.516;2022-08-30T10:18:01;2.40;;;1.25;;
60722;SDS011;46574;52.818;6.516;2022-08-30T10:23:21;2.20;;;1.20;;
60722;SDS011;46574;52.818;6.516;2022-08-30T10:26:01;2.83;;;1.30;;
60722;SDS011;46574;52.818;6.516;2022-08-30T10:31:11;4.80;;;1.30;;
60722;SDS011;46574;52.818;6.516;2022-08-30T10:33:49;2.80;;;1.40;;
60722;SDS011;46574;52.818;6.516;2022-08-30T10:36:22;5.43;;;1.35;;
60722;SDS011;46574;52.818;6.516;2022-08-30T10:38:54;1.98;;;1.00;;
60722;SDS011;46574;52.818;6.516;2022-08-30T10:41:38;3.90;;;1.58;;
60722;SDS011;46574;52.818;6.516;2022-08-30T10:46:58;1.90;;;1.08;;
60722;SDS011;46574;52.818;6.516;2022-08-30T10:49:36;1.63;;;1.15;;
60722;SDS011;46574;52.818;6.516;2022-08-30T10:54:34;2.15;;;0.98;;
60722;SDS011;46574;52.818;6.516;2022-08-30T10:57:08;1.23;;;1.10;;
60722;SDS011;46574;52.818;6.516;2022-08-30T10:59:34;1.40;;;0.90;;
60722;SDS011;46574;52.818;6.516;2022-08-30T11:05:05;4.38;;;1.58;;
60722;SDS011;46574;52.818;6.516;2022-08-30T11:13:11;1.15;;;1.00;;
60722;SDS011;46574;52.818;6.516;2022-08-30T11:15:52;3.67;;;1.35;;
60722;SDS011;46574;52.818;6.516;2022-08-30T11:18:40;2.60;;;1.13;;
60722;SDS011;46574;52.818;6.516;2022-08-30T11:23:59;2.33;;;1.10;;
60722;SDS011;46574;52.818;6.516;2022-08-30T11:29:26;1.48;;;0.80;;
60722;SDS011;46574;52.818;6.516;2022-08-30T11:32:20;3.65;;;1.40;;
60722;SDS011;46574;52.818;6.516;2022-08-30T11:42:32;1.92;;;1.13;;
60722;SDS011;46574;52.818;6.516;2022-08-30T11:47:52;2.15;;;0.93;;
60722;SDS011;46574;52.818;6.516;2022-08-30T11:53:19;4.82;;;1.35;;
60722;SDS011;46574;52.818;6.516;2022-08-30T11:56:02;1.48;;;0.98;;
60722;SDS011;46574;52.818;6.516;2022-08-30T12:01:48;2.28;;;1.15;;
60722;SDS011;46574;52.818;6.516;2022-08-30T12:14:35;2.00;;;1.00;;
60722;SDS011;46574;52.818;6.516;2022-08-30T12:17:12;2.10;;;1.10;;
60722;SDS011;46574;52.818;6.516;2022-08-30T12:20:01;5.65;;;1.30;;
60722;SDS011;46574;52.818;6.516;2022-08-30T12:22:29;1.30;;;1.00;;
60722;SDS011;46574;52.818;6.516;2022-08-30T12:25:01;2.35;;;0.98;;
60722;SDS011;46574;52.818;6.516;2022-08-30T12:27:37;1.88;;;0.90;;
60722;SDS011;46574;52.818;6.516;2022-08-30T12:30:04;1.70;;;1.20;;
60722;SDS011;46574;52.818;6.516;2022-08-30T12:32:32;0.95;;;0.80;;
60722;SDS011;46574;52.818;6.516;2022-08-30T12:35:03;3.22;;;1.20;;
60722;SDS011;46574;52.818;6.516;2022-08-30T12:37:33;1.90;;;0.98;;
60722;SDS011;46574;52.818;6.516;2022-08-30T12:40:13;1.55;;;1.10;;
60722;SDS011;46574;52.818;6.516;2022-08-30T12:42:53;3.60;;;1.10;;
60722;SDS011;46574;52.818;6.516;2022-08-30T12:45:26;2.60;;;1.30;;
60722;SDS011;46574;52.818;6.516;2022-08-30T12:47:58;2.80;;;1.30;;
60722;SDS011;46574;52.818;6.516;2022-08-30T12:50:29;2.20;;;0.98;;
60722;SDS011;46574;52.818;6.516;2022-08-30T12:53:03;3.13;;;1.10;;
60722;SDS011;46574;52.818;6.516;2022-08-30T12:55:33;3.75;;;1.20;;
60722;SDS011;46574;52.818;6.516;2022-08-30T13:00:40;5.25;;;1.10;;
60722;SDS011;46574;52.818;6.516;2022-08-30T13:03:28;1.88;;;1.10;;
60722;SDS011;46574;52.818;6.516;2022-08-30T13:05:58;3.85;;;1.10;;
60722;SDS011;46574;52.818;6.516;2022-08-30T13:08:47;1.35;;;1.00;;
60722;SDS011;46574;52.818;6.516;2022-08-30T13:21:21;1.50;;;0.98;;
60722;SDS011;46574;52.818;6.516;2022-08-30T13:24:02;1.67;;;0.80;;
60722;SDS011;46574;52.818;6.516;2022-08-30T13:26:31;3.03;;;1.25;;
60722;SDS011;46574;52.818;6.516;2022-08-30T13:29:00;2.97;;;1.10;;
60722;SDS011;46574;52.818;6.516;2022-08-30T13:31:28;4.95;;;1.10;;
60722;SDS011;46574;52.818;6.516;2022-08-30T13:33:55;1.67;;;0.98;;
60722;SDS011;46574;52.818;6.516;2022-08-30T13:36:30;0.82;;;0.82;;
60722;SDS011;46574;52.818;6.516;2022-08-30T13:38:58;1.02;;;0.90;;
60722;SDS011;46574;52.818;6.516;2022-08-30T13:41:24;1.77;;;1.05;;
60722;SDS011;46574;52.818;6.516;2022-08-30T13:43:51;2.80;;;1.00;;
60722;SDS011;46574;52.818;6.516;2022-08-30T13:46:17;1.70;;;0.90;;
60722;SDS011;46574;52.818;6.516;2022-08-30T13:48:45;1.08;;;0.90;;
60722;SDS011;46574;52.818;6.516;2022-08-30T13:51:11;3.42;;;1.02;;
60722;SDS011;46574;52.818;6.516;2022-08-30T13:53:37;3.40;;;1.08;;
60722;SDS011;46574;52.818;6.516;2022-08-30T13:56:03;2.15;;;1.20;;
60722;SDS011;46574;52.818;6.516;2022-08-30T13:58:30;2.10;;;1.00;;
60722;SDS011;46574;52.818;6.516;2022-08-30T14:00:56;1.77;;;1.00;;
60722;SDS011;46574;52.818;6.516;2022-08-30T14:03:22;1.02;;;0.90;;
60722;SDS011;46574;52.818;6.516;2022-08-30T14:05:48;1.40;;;0.90;;
60722;SDS011;46574;52.818;6.516;2022-08-30T14:08:16;3.78;;;1.27;;
60722;SDS011;46574;52.818;6.516;2022-08-30T14:10:44;3.33;;;0.90;;
60722;SDS011;46574;52.818;6.516;2022-08-30T14:13:10;1.13;;;1.00;;
60722;SDS011;46574;52.818;6.516;2022-08-30T14:15:36;2.08;;;0.82;;
60722;SDS011;46574;52.818;6.516;2022-08-30T14:18:03;1.10;;;1.00;;
60722;SDS011;46574;52.818;6.516;2022-08-30T14:20:29;1.88;;;0.90;;
60722;SDS011;46574;52.818;6.516;2022-08-30T14:22:55;1.60;;;0.90;;
60722;SDS011;46574;52.818;6.516;2022-08-30T14:25:20;1.20;;;1.10;;
60722;SDS011;46574;52.818;6.516;2022-08-30T14:27:46;1.13;;;0.90;;
60722;SDS011;46574;52.818;6.516;2022-08-30T14:30:12;2.58;;;1.10;;
60722;SDS011;46574;52.818;6.516;2022-08-30T14:32:38;1.70;;;0.90;;
60722;SDS011;46574;52.818;6.516;2022-08-30T14:35:03;1.38;;;1.08;;
60722;SDS011;46574;52.818;6.516;2022-08-30T14:37:29;1.23;;;1.00;;
60722;SDS011;46574;52.818;6.516;2022-08-30T14:39:55;2.42;;;1.20;;
60722;SDS011;46574;52.818;6.516;2022-08-30T14:42:21;0.93;;;0.88;;
60722;SDS011;46574;52.818;6.516;2022-08-30T14:44:46;1.52;;;0.90;;
60722;SDS011;46574;52.818;6.516;2022-08-30T14:47:12;1.92;;;0.90;;
60722;SDS011;46574;52.818;6.516;2022-08-30T14:49:38;1.25;;;0.95;;
60722;SDS011;46574;52.818;6.516;2022-08-30T14:52:04;3.58;;;1.35;;
60722;SDS011;46574;52.818;6.516;2022-08-30T14:54:30;3.67;;;1.10;;
60722;SDS011;46574;52.818;6.516;2022-08-30T14:56:56;2.67;;;1.08;;
60722;SDS011;46574;52.818;6.516;2022-08-30T14:59:22;1.60;;;1.00;;
60722;SDS011;46574;52.818;6.516;2022-08-30T15:01:49;1.52;;;1.23;;
60722;SDS011;46574;52.818;6.516;2022-08-30T15:04:16;1.90;;;0.80;;
60722;SDS011;46574;52.818;6.516;2022-08-30T15:06:42;2.35;;;0.93;;
60722;SDS011;46574;52.818;6.516;2022-08-30T15:11:37;1.38;;;1.00;;
60722;SDS011;46574;52.818;6.516;2022-08-30T15:14:03;1.77;;;1.10;;
60722;SDS011;46574;52.818;6.516;2022-08-30T15:16:31;1.42;;;1.23;;
60722;SDS011;46574;52.818;6.516;2022-08-30T15:18:59;1.45;;;1.10;;
60722;SDS011;46574;52.818;6.516;2022-08-30T15:21:25;2.35;;;1.23;;
60722;SDS011;46574;52.818;6.516;2022-08-30T15:23:54;1.95;;;1.00;;
60722;SDS011;46574;52.818;6.516;2022-08-30T15:26:21;1.30;;;1.20;;
60722;SDS011;46574;52.818;6.516;2022-08-30T15:28:47;2.03;;;0.90;;
60722;SDS011;46574;52.818;6.516;2022-08-30T15:31:12;2.38;;;1.08;;
60722;SDS011;46574;52.818;6.516;2022-08-30T15:33:38;1.48;;;0.85;;
60722;SDS011;46574;52.818;6.516;2022-08-30T15:36:05;1.25;;;0.90;;
60722;SDS011;46574;52.818;6.516;2022-08-30T15:38:31;1.40;;;1.00;;
60722;SDS011;46574;52.818;6.516;2022-08-30T15:40:59;1.20;;;1.10;;
60722;SDS011;46574;52.818;6.516;2022-08-30T15:43:28;1.33;;;1.23;;
60722;SDS011;46574;52.818;6.516;2022-08-30T15:45:54;1.98;;;1.20;;
60722;SDS011;46574;52.818;6.516;2022-08-30T15:48:20;2.17;;;1.88;;
60722;SDS011;46574;52.818;6.516;2022-08-30T15:50:46;1.52;;;1.13;;
60722;SDS011;46574;52.818;6.516;2022-08-30T15:53:21;3.38;;;1.40;;
60722;SDS011;46574;52.818;6.516;2022-08-30T15:55:47;1.38;;;1.00;;
60722;SDS011;46574;52.818;6.516;2022-08-30T15:58:12;1.35;;;1.25;;
60722;SDS011;46574;52.818;6.516;2022-08-30T16:00:38;1.80;;;0.90;;
60722;SDS011;46574;52.818;6.516;2022-08-30T16:03:04;1.20;;;1.10;;
60722;SDS011;46574;52.818;6.516;2022-08-30T16:05:30;1.30;;;1.20;;
60722;SDS011;46574;52.818;6.516;2022-08-30T16:07:56;1.23;;;1.13;;
60722;SDS011;46574;52.818;6.516;2022-08-30T16:10:22;1.55;;;1.13;;
60722;SDS011;46574;52.818;6.516;2022-08-30T16:12:47;3.00;;;1.40;;
60722;SDS011;46574;52.818;6.516;2022-08-30T16:15:13;1.92;;;1.30;;
60722;SDS011;46574;52.818;6.516;2022-08-30T16:17:39;1.67;;;1.15;;
60722;SDS011;46574;52.818;6.516;2022-08-30T16:20:05;2.15;;;1.27;;
60722;SDS011;46574;52.818;6.516;2022-08-30T16:22:32;2.05;;;1.33;;
60722;SDS011;46574;52.818;6.516;2022-08-30T16:24:58;1.75;;;1.10;;
60722;SDS011;46574;52.818;6.516;2022-08-30T16:27:24;2.28;;;1.50;;
60722;SDS011;46574;52.818;6.516;2022-08-30T16:29:50;2.60;;;1.50;;
60722;SDS011;46574;52.818;6.516;2022-08-30T16:32:16;1.35;;;1.10;;
60722;SDS011;46574;52.818;6.516;2022-08-30T16:34:42;2.90;;;1.15;;
60722;SDS011;46574;52.818;6.516;2022-08-30T16:37:08;1.20;;;1.10;;